Time;durP1;ratioP1;P1;durP2;ratioP2;P2;SDS_P1;SDS_P2;PMS_P1;PMS_P2;Temp;Humidity;BMP_temperature;BMP_pressure;BME280_temperature;BME280_humidity;BME280_pressure;Samples;Min_cycle;Max_cycle;Signal;HPM_P1;HPM_P2
2021/12/13 00:01:19;;;;;;;12.07;11.47;;;;;;;-0.99;79.81;92742.22;5090174;28;20220;-74
2021/12/13 00:04:11;;;;;;;11.50;11.00;;;;;;;-1.04;80.05;92728.47;5092062;28;21298;-74
2021/12/13 00:06:57;;;;;;;10.97;10.47;;;;;;;-1.00;81.49;92734.75;5088385;28;20235;-74
2021/12/13 00:09:25;;;;;;;12.53;11.80;;;;;;;-1.00;81.40;92734.75;5090584;28;20192;-76
2021/12/13 00:11:56;;;;;;;11.53;10.93;;;;;;;-1.01;81.87;92740.88;5091151;28;20184;-77
2021/12/13 00:14:28;;;;;;;11.30;10.80;;;;;;;-1.07;80.59;92750.16;5090774;28;20220;-77
2021/12/13 00:17:06;;;;;;;11.20;10.70;;;;;;;-0.96;81.00;92758.94;5090399;28;20184;-77
2021/12/13 00:19:38;;;;;;;10.63;10.23;;;;;;;-1.04;81.36;92751.53;5090821;28;20193;-77
2021/12/13 00:22:08;;;;;;;11.33;10.77;;;;;;;-0.85;82.09;92755.72;5122324;28;20185;-77
2021/12/13 00:24:39;;;;;;;10.87;10.37;;;;;;;-0.84;81.18;92765.00;5088240;28;20296;-77
2021/12/13 00:27:17;;;;;;;9.80;9.40;;;;;;;-0.91;80.90;92764.25;5071116;28;20212;-77
2021/12/13 00:29:59;;;;;;;10.97;10.47;;;;;;;-0.95;81.03;92755.41;5070778;28;20228;-77
2021/12/13 00:32:37;;;;;;;10.83;10.33;;;;;;;-1.01;81.26;92766.47;5069533;28;20335;-77
2021/12/13 00:35:08;;;;;;;11.23;10.73;;;;;;;-1.07;81.66;92746.78;5068195;28;20225;-77
2021/12/13 00:37:39;;;;;;;10.77;10.20;;;;;;;-1.01;81.17;92743.44;5070169;28;20196;-77
2021/12/13 00:40:14;;;;;;;9.70;9.10;;;;;;;-0.81;80.49;92760.22;5075905;28;20220;-77
2021/12/13 00:42:49;;;;;;;10.57;10.07;;;;;;;-0.79;79.71;92752.34;5090273;28;20187;-77
2021/12/13 00:45:17;;;;;;;11.70;11.20;;;;;;;-0.84;78.61;92758.09;5089595;28;20231;-76
2021/12/13 00:47:44;;;;;;;9.60;9.20;;;;;;;-0.72;78.63;92758.22;5090021;28;20185;-77
2021/12/13 00:50:19;;;;;;;11.50;10.93;;;;;;;-0.74;79.59;92755.06;5090317;28;20232;-77
2021/12/13 00:52:48;;;;;;;10.37;9.97;;;;;;;-0.63;78.36;92754.41;5090053;28;20266;-77
2021/12/13 00:55:35;;;;;;;10.60;10.00;;;;;;;-0.79;77.56;92736.97;5083321;28;20386;-77
2021/12/13 00:58:03;;;;;;;8.73;8.43;;;;;;;-0.67;78.27;92754.03;5069273;28;20232;-77
2021/12/13 01:00:53;;;;;;;10.90;10.50;;;;;;;-0.77;78.04;92760.63;5068896;28;20221;-77
2021/12/13 01:03:49;;;;;;;9.43;9.03;;;;;;;-0.68;77.64;92751.69;5068898;28;20201;-77
2021/12/13 01:07:11;;;;;;;9.53;9.13;;;;;;;-0.63;78.08;92751.84;5056983;28;20225;-77
2021/12/13 01:10:14;;;;;;;9.27;8.77;;;;;;;-0.64;76.18;92751.06;5069751;28;20252;-77
2021/12/13 01:12:40;;;;;;;9.77;9.37;;;;;;;-0.66;78.58;92737.69;5070029;28;21050;-77
2021/12/13 01:15:13;;;;;;;10.00;9.60;;;;;;;-0.52;76.86;92749.41;5070396;28;20256;-77
2021/12/13 01:18:01;;;;;;;9.77;9.37;;;;;;;-0.47;76.96;92751.34;5066897;28;20193;-77
2021/12/13 01:20:57;;;;;;;9.63;9.13;;;;;;;-0.69;77.22;92729.63;5068290;28;20225;-76
2021/12/13 01:23:41;;;;;;;10.03;9.63;;;;;;;-0.62;76.98;92751.63;5069209;28;20196;-74
2021/12/13 01:26:28;;;;;;;10.13;9.73;;;;;;;-0.68;76.35;92749.13;5068736;28;20285;-73
2021/12/13 01:29:06;;;;;;;10.73;10.33;;;;;;;-0.69;77.60;92743.22;5069002;28;20260;-74
2021/12/13 01:31:36;;;;;;;9.13;8.77;;;;;;;-0.61;76.78;92749.88;5067873;28;20229;-73
2021/12/13 01:34:04;;;;;;;10.13;9.73;;;;;;;-0.59;76.29;92755.59;5070358;28;20189;-73
2021/12/13 01:37:23;;;;;;;10.33;9.93;;;;;;;-0.68;77.91;92752.47;5069465;28;20331;-74
2021/12/13 01:39:51;;;;;;;9.47;9.07;;;;;;;-0.75;77.59;92741.50;5066956;28;20274;-73
2021/12/13 01:42:28;;;;;;;10.63;10.23;;;;;;;-0.66;78.53;92747.94;5070604;28;20264;-75
2021/12/13 01:44:59;;;;;;;8.50;8.20;;;;;;;-0.77;78.90;92763.97;5070437;28;20266;-74
2021/12/13 01:47:34;;;;;;;9.37;9.07;;;;;;;-0.85;80.75;92741.16;5068628;28;20200;-75
2021/12/13 01:50:11;;;;;;;10.10;9.70;;;;;;;-0.94;79.92;92759.53;5069321;28;20241;-74
2021/12/13 01:52:38;;;;;;;10.03;9.63;;;;;;;-1.01;79.53;92743.44;5069968;28;20194;-74
2021/12/13 01:55:14;;;;;;;9.50;8.90;;;;;;;-0.91;82.18;92744.53;5069517;28;20248;-74
2021/12/13 01:57:55;;;;;;;10.70;10.30;;;;;;;-0.98;81.18;92745.56;5070430;28;20210;-73
2021/12/13 02:01:08;;;;;;;9.60;9.20;;;;;;;-0.90;81.54;92747.91;5069619;28;20228;-74
2021/12/13 02:03:20;;;;;;;10.37;9.87;;;;;;;-1.08;81.51;92748.59;5069559;28;20265;-74
2021/12/13 02:05:48;;;;;;;10.90;10.30;;;;;;;-1.04;83.56;92747.16;5082550;28;21256;-74
2021/12/13 02:08:17;;;;;;;10.23;9.83;;;;;;;-1.15;83.11;92750.38;5089838;28;20261;-74
2021/12/13 02:10:52;;;;;;;9.77;9.47;;;;;;;-1.06;82.59;92735.56;5076429;28;20225;-74
2021/12/13 02:13:26;;;;;;;10.00;9.60;;;;;;;-1.03;82.21;92753.09;5069778;28;20221;-74
2021/12/13 02:18:50;;;;;;;9.73;9.37;;;;;;;-1.04;82.63;92747.16;5068747;28;20255;-74
2021/12/13 02:21:26;;;;;;;9.00;8.70;;;;;;;-0.94;82.09;92744.16;5066939;28;20868;-74
2021/12/13 02:23:55;;;;;;;9.70;9.30;;;;;;;-1.08;82.28;92745.22;5070522;28;20181;-74
2021/12/13 02:26:21;;;;;;;9.83;9.53;;;;;;;-1.18;82.57;92729.53;5067850;28;20229;-73
2021/12/13 02:28:59;;;;;;;10.17;9.67;;;;;;;-1.12;81.91;92747.41;5069860;28;20193;-74
2021/12/13 02:31:29;;;;;;;10.60;10.10;;;;;;;-1.12;82.58;92741.50;5068808;28;20241;-74
2021/12/13 02:34:03;;;;;;;10.23;9.87;;;;;;;-1.34;82.57;92717.19;5068614;28;20231;-73
2021/12/13 02:36:37;;;;;;;10.23;9.83;;;;;;;-1.18;82.79;92745.66;5067741;28;20241;-74
2021/12/13 02:39:13;;;;;;;10.60;10.20;;;;;;;-1.12;82.94;92744.84;5067828;28;20272;-74
2021/12/13 02:41:41;;;;;;;10.17;9.77;;;;;;;-1.23;83.71;92734.47;5066393;28;20296;-76
2021/12/13 02:44:25;;;;;;;9.53;9.23;;;;;;;-1.20;83.18;92734.88;5069694;28;20201;-76
2021/12/13 02:46:57;;;;;;;10.73;10.33;;;;;;;-1.27;83.29;92731.53;5088281;28;20297;-76
2021/12/13 02:49:23;;;;;;;12.33;11.83;;;;;;;-1.32;83.44;92733.16;5087891;28;20204;-76
2021/12/13 02:51:53;;;;;;;12.23;11.60;;;;;;;-1.11;83.16;92743.06;5089191;28;20197;-76
2021/12/13 02:54:26;;;;;;;9.87;9.43;;;;;;;-1.09;82.61;92752.13;5086871;28;20189;-76
2021/12/13 02:57:02;;;;;;;9.63;9.23;;;;;;;-1.04;83.99;92759.22;5089227;28;20193;-76
2021/12/13 02:59:31;;;;;;;9.50;9.13;;;;;;;-1.22;83.36;92747.06;5087118;28;20218;-76
2021/12/13 03:02:04;;;;;;;11.17;10.77;;;;;;;-1.21;84.00;92753.75;5086276;28;20195;-76
2021/12/13 03:04:30;;;;;;;11.50;11.10;;;;;;;-1.17;83.92;92754.16;5087038;28;20185;-77
2021/12/13 03:07:07;;;;;;;10.30;9.80;;;;;;;-1.10;84.35;92755.69;5086383;28;20222;-76
2021/12/13 03:09:35;;;;;;;11.17;10.63;;;;;;;-1.17;84.02;92759.25;5088281;28;20201;-76
2021/12/13 03:12:05;;;;;;;14.47;13.87;;;;;;;-1.33;83.40;92723.88;5088763;28;20309;-76
2021/12/13 03:14:40;;;;;;;10.87;10.43;;;;;;;-1.16;82.96;92748.81;5086405;28;20295;-76
2021/12/13 03:17:07;;;;;;;10.13;9.73;;;;;;;-0.99;83.34;92759.34;5087767;28;20222;-76
2021/12/13 03:19:36;;;;;;;10.43;10.03;;;;;;;-1.02;83.44;92746.97;5089146;28;20193;-76
2021/12/13 03:22:32;;;;;;;10.60;10.20;;;;;;;-1.07;83.88;92757.03;5087312;28;20200;-76
2021/12/13 03:25:06;;;;;;;10.30;9.83;;;;;;;-1.13;83.95;92745.03;5091074;28;20258;-76
2021/12/13 03:27:37;;;;;;;11.43;10.93;;;;;;;-1.13;84.19;92750.97;5092709;28;20711;-76
2021/12/13 03:30:07;;;;;;;9.77;9.37;;;;;;;-1.06;84.83;92750.94;5092975;28;20248;-76
2021/12/13 03:32:42;;;;;;;11.97;11.47;;;;;;;-1.24;83.30;92753.38;5093141;28;21163;-77
2021/12/13 03:35:19;;;;;;;11.77;11.17;;;;;;;-1.22;84.71;92751.41;5092081;28;20284;-76
2021/12/13 03:37:53;;;;;;;10.80;10.30;;;;;;;-1.39;85.69;92750.28;5090371;28;20199;-76
2021/12/13 03:40:21;;;;;;;10.33;9.83;;;;;;;-1.37;85.44;92753.44;5114479;28;20247;-76
2021/12/13 03:42:51;;;;;;;11.77;11.27;;;;;;;-1.33;85.43;92759.72;5072534;28;20197;-77
2021/12/13 03:45:25;;;;;;;10.10;9.60;;;;;;;-1.30;85.73;92759.31;5071251;28;20225;-76
2021/12/13 03:47:55;;;;;;;11.07;10.57;;;;;;;-1.30;87.62;92756.75;5071617;28;20197;-76
2021/12/13 03:50:27;;;;;;;10.40;9.90;;;;;;;-1.30;86.06;92760.09;5070608;28;20247;-76
2021/12/13 03:52:58;;;;;;;10.43;9.87;;;;;;;-1.41;86.76;92770.19;5070298;28;20209;-76
2021/12/13 03:55:28;;;;;;;11.60;10.90;;;;;;;-1.50;87.22;92748.38;5069914;28;20232;-76
2021/12/13 03:57:58;;;;;;;11.77;11.17;;;;;;;-1.58;87.15;92738.34;5070801;28;20196;-76
2021/12/13 04:00:27;;;;;;;11.03;10.43;;;;;;;-1.44;86.91;92743.22;5079719;28;20236;-76
2021/12/13 04:02:55;;;;;;;11.47;10.87;;;;;;;-1.18;86.85;92762.81;5092002;28;20219;-76
2021/12/13 04:05:23;;;;;;;10.27;9.77;;;;;;;-1.19;85.17;92763.78;5091937;28;20251;-77
2021/12/13 04:07:53;;;;;;;12.77;12.17;;;;;;;-1.12;86.10;92757.66;5090670;28;20183;-76
2021/12/13 04:10:27;;;;;;;9.73;9.33;;;;;;;-1.09;86.08;92759.81;5091730;28;20225;-77
2021/12/13 04:12:56;;;;;;;10.93;10.43;;;;;;;-1.12;86.02;92754.31;5091283;28;20193;-76
2021/12/13 04:15:45;;;;;;;11.07;10.50;;;;;;;-1.05;84.78;92749.94;5090582;28;20259;-83
2021/12/13 04:18:30;;;;;;;10.83;10.33;;;;;;;-1.08;85.04;92752.91;5091503;28;20184;-83
2021/12/13 04:21:05;;;;;;;11.03;10.53;;;;;;;-1.08;84.86;92768.28;5092357;28;20225;-86
2021/12/13 04:23:32;;;;;;;11.67;11.07;;;;;;;-1.05;85.03;92773.78;5092123;28;20188;-87
2021/12/13 04:26:02;;;;;;;11.73;11.23;;;;;;;-1.11;85.25;92778.94;5090260;28;20240;-82
2021/12/13 04:28:40;;;;;;;11.30;10.60;;;;;;;-1.15;85.68;92759.84;5092179;28;20201;-81
2021/12/13 04:31:09;;;;;;;12.43;11.80;;;;;;;-1.20;86.26;92749.44;5088071;28;20236;-81
2021/12/13 04:33:37;;;;;;;12.63;12.03;;;;;;;-0.96;88.38;92785.34;5089819;28;20189;-76
2021/12/13 04:36:14;;;;;;;12.37;11.67;;;;;;;-0.98;88.48;92784.00;5076259;28;20217;-73
2021/12/13 04:38:58;;;;;;;13.13;12.43;;;;;;;-0.93;89.26;92787.50;5066389;28;20219;-77
2021/12/13 04:41:42;;;;;;;13.23;12.47;;;;;;;-1.04;87.88;92789.94;5069152;28;20235;-75
2021/12/13 04:44:13;;;;;;;11.43;10.83;;;;;;;-1.10;89.02;92790.75;5070542;28;20188;-81
2021/12/13 04:46:41;;;;;;;12.33;11.63;;;;;;;-1.30;87.96;92751.63;5087452;28;20228;-75
2021/12/13 04:49:12;;;;;;;12.67;11.97;;;;;;;-1.20;87.75;92769.91;5091209;28;20201;-74
2021/12/13 04:51:59;;;;;;;13.20;12.50;;;;;;;-1.07;87.77;92785.22;5088400;28;21212;-73
2021/12/13 04:54:29;;;;;;;11.90;11.30;;;;;;;-1.10;88.13;92780.50;5088595;28;20224;-73
2021/12/13 04:56:57;;;;;;;12.60;11.77;;;;;;;-1.15;88.23;92777.78;5090370;28;20228;-75
2021/12/13 04:59:24;;;;;;;13.23;12.53;;;;;;;-1.41;88.34;92754.81;5088932;28;20193;-75
2021/12/13 05:01:54;;;;;;;12.33;11.63;;;;;;;-1.23;88.47;92795.94;5090836;28;20752;-75
2021/12/13 05:04:21;;;;;;;12.17;11.47;;;;;;;-1.36;88.96;92793.41;5089619;28;20189;-72
2021/12/13 05:06:48;;;;;;;12.67;11.87;;;;;;;-1.27;88.68;92798.09;5089384;28;20223;-74
2021/12/13 05:09:17;;;;;;;12.73;12.03;;;;;;;-1.21;89.04;92793.94;5090608;28;20188;-73
2021/12/13 05:12:09;;;;;;;12.43;11.63;;;;;;;-1.37;89.33;92777.25;5067603;28;20258;-72
2021/12/13 05:14:39;;;;;;;12.03;11.23;;;;;;;-1.27;88.19;92799.88;5071450;28;20222;-74
2021/12/13 05:17:36;;;;;;;12.70;11.93;;;;;;;-1.23;88.01;92798.50;5090095;28;20196;-76
2021/12/13 05:20:26;;;;;;;15.00;14.03;;;;;;;-1.30;88.61;92792.59;5071608;28;20282;-74
2021/12/13 05:23:05;;;;;;;13.23;12.53;;;;;;;-1.20;88.22;92788.63;5088938;28;20181;-74
2021/12/13 05:25:43;;;;;;;12.90;12.00;;;;;;;-0.86;88.37;92811.34;5089740;28;20227;-74
2021/12/13 05:28:16;;;;;;;13.13;12.33;;;;;;;-0.99;87.41;92800.34;5088289;28;20204;-72
2021/12/13 05:30:50;;;;;;;13.37;12.47;;;;;;;-0.98;89.30;92802.69;5089857;28;20232;-80
2021/12/13 05:33:19;;;;;;;11.77;11.07;;;;;;;-1.20;88.00;92805.78;5089862;28;20189;-73
2021/12/13 05:35:49;;;;;;;13.20;12.40;;;;;;;-1.16;88.29;92823.09;5089270;28;20252;-73
2021/12/13 05:38:29;;;;;;;12.20;11.57;;;;;;;-1.30;87.90;92811.31;5089025;28;20192;-78
2021/12/13 05:40:57;;;;;;;11.57;10.90;;;;;;;-1.48;88.78;92777.91;5089864;28;20216;-78
2021/12/13 05:43:29;;;;;;;13.73;12.83;;;;;;;-1.17;89.04;92797.69;5090281;28;20183;-78
2021/12/13 05:46:06;;;;;;;12.30;11.63;;;;;;;-1.09;88.71;92813.59;5088393;28;20268;-78
2021/12/13 05:48:34;;;;;;;13.63;12.87;;;;;;;-1.05;88.36;92822.44;5088097;28;20188;-78
2021/12/13 05:51:04;;;;;;;15.57;14.67;;;;;;;-1.18;88.81;92824.28;5074535;28;20289;-77
2021/12/13 05:53:42;;;;;;;13.23;12.47;;;;;;;-1.21;90.12;92817.78;5069589;28;20220;-76
2021/12/13 05:56:15;;;;;;;13.47;12.57;;;;;;;-1.22;91.15;92812.84;5069044;28;20308;-77
2021/12/13 05:58:43;;;;;;;14.87;13.70;;;;;;;-0.95;90.09;92827.91;5068141;28;20190;-77
2021/12/13 06:01:23;;;;;;;13.87;12.97;;;;;;;-1.16;90.22;92832.53;5067529;28;20225;-76
2021/12/13 06:03:53;;;;;;;12.83;12.13;;;;;;;-1.06;89.35;92838.78;5069688;28;20189;-77
2021/12/13 06:06:24;;;;;;;16.03;14.73;;;;;;;-1.41;89.99;92809.38;5083276;28;20231;-76
2021/12/13 06:08:53;;;;;;;13.37;12.47;;;;;;;-1.40;91.57;92838.34;5088873;28;20188;-77
2021/12/13 06:11:32;;;;;;;15.20;14.20;;;;;;;-1.15;90.81;92841.81;5070789;28;20213;-75
2021/12/13 06:14:02;;;;;;;13.90;13.00;;;;;;;-1.33;91.01;92832.22;5068699;28;20224;-78
2021/12/13 06:16:43;;;;;;;13.10;12.20;;;;;;;-1.29;90.88;92846.16;5069597;28;20225;-77
2021/12/13 06:19:28;;;;;;;14.70;13.60;;;;;;;-1.21;90.75;92858.75;5069391;28;20698;-79
2021/12/13 06:22:02;;;;;;;12.90;12.10;;;;;;;-1.17;91.30;92854.81;5067423;28;20208;-77
2021/12/13 06:24:33;;;;;;;13.73;12.83;;;;;;;-1.24;90.19;92831.00;5070226;28;20249;-78
2021/12/13 06:27:13;;;;;;;12.83;11.93;;;;;;;-1.24;92.45;92836.09;5087354;28;20216;-77
2021/12/13 06:30:07;;;;;;;14.17;13.17;;;;;;;-1.20;91.52;92839.84;5087661;28;20252;-75
2021/12/13 06:32:51;;;;;;;14.17;13.27;;;;;;;-1.18;90.43;92860.13;5089845;28;20185;-76
2021/12/13 06:35:38;;;;;;;14.13;13.03;;;;;;;-1.17;91.01;92867.63;5089361;28;20224;-77
2021/12/13 06:38:18;;;;;;;14.30;13.40;;;;;;;-1.14;92.18;92872.34;5087339;28;20189;-77
2021/12/13 06:41:09;;;;;;;13.87;12.97;;;;;;;-1.18;91.46;92873.72;5088153;28;20235;-77
2021/12/13 06:43:47;;;;;;;14.60;13.67;;;;;;;-1.18;91.57;92866.03;5089177;28;20188;-77
2021/12/13 06:46:21;;;;;;;13.17;12.30;;;;;;;-1.10;91.44;92873.50;5087833;28;20224;-77
2021/12/13 06:48:49;;;;;;;12.90;12.10;;;;;;;-1.13;90.94;92867.97;5082165;28;20212;-76
2021/12/13 06:51:18;;;;;;;12.70;11.73;;;;;;;-1.17;91.85;92888.09;5087878;28;20209;-77
2021/12/13 06:54:16;;;;;;;12.90;12.20;;;;;;;-1.31;92.26;92867.84;5088465;28;20210;-77
2021/12/13 06:56:43;;;;;;;13.93;13.03;;;;;;;-1.15;91.54;92890.47;5078262;28;20262;-77
2021/12/13 06:59:16;;;;;;;14.23;13.33;;;;;;;-1.20;91.82;92885.16;5091414;28;20206;-77
2021/12/13 07:01:42;;;;;;;12.40;11.63;;;;;;;-1.41;91.52;92863.13;5091788;28;20212;-76
2021/12/13 07:04:12;;;;;;;13.40;12.40;;;;;;;-1.26;91.81;92898.78;5089549;28;20211;-74
2021/12/13 07:06:39;;;;;;;13.40;12.50;;;;;;;-1.43;92.52;92877.13;5092377;28;20236;-73
2021/12/13 07:09:21;;;;;;;14.20;13.20;;;;;;;-1.20;94.68;92892.84;5092470;28;20195;-74
2021/12/13 07:11:55;;;;;;;13.67;12.77;;;;;;;-1.17;93.33;92879.63;5071997;28;20213;-75
2021/12/13 07:14:36;;;;;;;12.93;12.03;;;;;;;-1.11;91.76;92896.75;5072173;28;20699;-76
2021/12/13 07:17:20;;;;;;;13.87;12.97;;;;;;;-1.16;92.08;92894.78;5071294;28;20201;-76
2021/12/13 07:19:50;;;;;;;14.13;13.20;;;;;;;-1.15;93.17;92893.78;5071915;28;20229;-75
2021/12/13 07:22:22;;;;;;;15.00;14.00;;;;;;;-1.00;91.66;92898.69;5068981;28;20205;-72
2021/12/13 07:24:54;;;;;;;13.47;12.57;;;;;;;-1.10;92.19;92875.25;5076001;28;20224;-76
2021/12/13 07:27:33;;;;;;;13.37;12.57;;;;;;;-0.99;90.84;92895.13;5093350;28;20288;-74
2021/12/13 07:30:24;;;;;;;12.73;11.93;;;;;;;-1.06;90.38;92897.69;5088490;28;20242;-74
2021/12/13 07:32:57;;;;;;;13.70;12.90;;;;;;;-1.10;90.66;92888.06;5087811;28;20208;-75
2021/12/13 07:35:36;;;;;;;15.03;13.93;;;;;;;-1.16;91.19;92899.13;5082799;28;20229;-76
2021/12/13 07:38:06;;;;;;;14.17;13.30;;;;;;;-1.00;91.71;92917.41;5070410;28;20185;-75
2021/12/13 07:40:34;;;;;;;13.97;13.03;;;;;;;-1.03;91.48;92904.22;5071294;28;20229;-72
2021/12/13 07:43:15;;;;;;;14.67;13.67;;;;;;;-1.02;90.32;92911.69;5071495;28;20249;-73
2021/12/13 07:45:59;;;;;;;14.50;13.30;;;;;;;-0.82;90.49;92922.66;5070575;28;20244;-73
2021/12/13 07:48:30;;;;;;;15.43;14.33;;;;;;;-0.83;89.99;92922.88;5071110;28;20212;-72
2021/12/13 07:51:07;;;;;;;15.33;14.30;;;;;;;-0.85;90.16;92917.16;5084243;28;20275;-73
2021/12/13 07:53:40;;;;;;;13.80;12.90;;;;;;;-0.79;90.10;92913.78;5090822;28;20184;-73
2021/12/13 07:56:06;;;;;;;14.37;13.37;;;;;;;-0.84;88.93;92891.34;5090142;28;20248;-72
2021/12/13 07:58:39;;;;;;;15.00;14.10;;;;;;;-1.01;89.51;92907.38;5091511;28;20219;-72
2021/12/13 08:01:29;;;;;;;14.60;13.60;;;;;;;-0.77;89.14;92919.50;5091739;28;20217;-73
2021/12/13 08:04:10;;;;;;;13.57;12.77;;;;;;;-0.77;88.64;92925.41;5120926;28;20513;-72
2021/12/13 08:06:42;;;;;;;14.27;13.27;;;;;;;-0.83;88.93;92907.50;5122888;28;20235;-71
2021/12/13 08:09:13;;;;;;;13.50;12.30;;;;;;;-0.73;88.38;92913.75;5091166;28;20193;-72
2021/12/13 08:12:11;;;;;;;13.90;13.00;;;;;;;-0.82;88.20;92916.75;5089007;28;20258;-72
2021/12/13 08:14:39;;;;;;;13.57;12.67;;;;;;;-0.67;88.66;92925.00;5090205;28;20267;-72
2021/12/13 08:17:15;;;;;;;12.17;11.47;;;;;;;-0.55;88.22;92939.53;5089578;28;20216;-72
2021/12/13 08:19:41;;;;;;;15.43;14.27;;;;;;;-0.48;87.99;92934.34;5089851;28;20232;-72
2021/12/13 08:22:18;;;;;;;15.53;14.17;;;;;;;-0.55;87.85;92931.84;5090248;28;20189;-71
2021/12/13 08:24:47;;;;;;;14.70;13.80;;;;;;;-0.33;87.27;92935.66;5084750;28;20331;-72
2021/12/13 08:27:32;;;;;;;13.53;12.63;;;;;;;-0.50;87.42;92941.50;5069551;28;20209;-72
2021/12/13 08:30:07;;;;;;;11.53;10.83;;;;;;;-0.53;86.55;92936.78;5069252;28;20238;-72
2021/12/13 08:32:33;;;;;;;13.87;12.93;;;;;;;-0.73;87.69;92905.31;5068169;28;20192;-72
2021/12/13 08:35:00;;;;;;;15.87;14.43;;;;;;;-0.38;87.39;92934.72;5070482;28;20236;-71
2021/12/13 08:37:39;;;;;;;13.63;12.83;;;;;;;-0.38;86.59;92927.03;5069271;28;20209;-72
2021/12/13 08:40:20;;;;;;;14.07;13.10;;;;;;;-0.59;87.67;92927.34;5075788;28;20228;-73
2021/12/13 08:42:47;;;;;;;12.93;12.07;;;;;;;-0.52;88.36;92939.13;5090689;28;20195;-72
2021/12/13 08:45:28;;;;;;;14.17;13.17;;;;;;;-0.51;88.24;92934.78;5081475;28;20220;-72
2021/12/13 08:47:58;;;;;;;16.70;15.10;;;;;;;-0.41;87.62;92925.66;5072709;28;20793;-71
2021/12/13 08:50:48;;;;;;;14.83;13.63;;;;;;;-0.42;87.42;92913.81;5089273;28;20199;-72
2021/12/13 08:53:34;;;;;;;13.67;12.67;;;;;;;-0.54;87.73;92935.19;5089188;28;20216;-73
2021/12/13 08:56:20;;;;;;;16.13;15.03;;;;;;;-0.51;87.84;92922.75;5087200;28;20185;-72
2021/12/13 08:59:03;;;;;;;15.63;14.47;;;;;;;-1.04;88.64;92861.66;5088866;28;20232;-70
2021/12/13 09:01:43;;;;;;;13.73;12.83;;;;;;;-0.82;88.35;92893.69;5088627;28;20189;-73
2021/12/13 09:04:10;;;;;;;13.43;12.57;;;;;;;-0.67;87.89;92904.50;5087691;28;20224;-71
2021/12/13 09:06:36;;;;;;;12.57;11.67;;;;;;;-0.78;88.48;92916.13;5089864;28;20223;-74
2021/12/13 09:09:20;;;;;;;14.40;13.50;;;;;;;-0.78;89.91;92917.94;5088703;28;20229;-73
2021/12/13 09:12:03;;;;;;;13.33;12.53;;;;;;;-0.55;88.40;92939.53;5088060;28;20188;-72
2021/12/13 09:14:39;;;;;;;13.20;12.40;;;;;;;-0.48;88.36;92916.41;5090609;28;20228;-73
2021/12/13 09:17:26;;;;;;;13.43;12.53;;;;;;;-0.38;87.40;92939.84;5086439;28;20288;-74
2021/12/13 09:20:04;;;;;;;16.17;15.10;;;;;;;-0.38;87.08;92934.72;5089832;28;20181;-72
2021/12/13 09:23:05;;;;;;;14.03;13.03;;;;;;;-0.26;87.35;92927.94;5088747;28;20228;-74
2021/12/13 09:25:39;;;;;;;12.90;12.10;;;;;;;-0.36;86.70;92922.50;5063729;28;20220;-73
2021/12/13 09:28:16;;;;;;;13.67;12.73;;;;;;;-0.25;87.29;92929.53;5088734;28;20219;-73
2021/12/13 09:30:58;;;;;;;13.30;12.40;;;;;;;-0.40;87.06;92864.91;5090332;28;20207;-73
2021/12/13 09:33:28;;;;;;;14.60;13.70;;;;;;;-0.15;86.80;92927.28;5088370;28;20239;-74
2021/12/13 09:36:14;;;;;;;13.43;12.50;;;;;;;-0.22;86.51;92929.13;5088583;28;20232;-73
2021/12/13 09:38:52;;;;;;;15.67;14.47;;;;;;;-0.33;87.32;92907.47;5088740;28;20310;-73
2021/12/13 09:41:27;;;;;;;14.77;13.67;;;;;;;-0.11;87.38;92920.78;5087500;28;20227;-73
2021/12/13 09:44:17;;;;;;;15.03;13.60;;;;;;;0.01;86.59;92916.53;5087823;28;20242;-73
2021/12/13 09:46:52;;;;;;;15.97;14.50;;;;;;;0.27;86.09;92918.13;5086294;28;20205;-74
2021/12/13 09:49:47;;;;;;;14.37;13.10;;;;;;;0.03;86.82;92922.28;5087922;28;20199;-74
2021/12/13 09:52:40;;;;;;;16.10;14.70;;;;;;;0.11;87.60;92919.44;5088566;28;20236;-76
2021/12/13 09:55:06;;;;;;;16.00;14.63;;;;;;;-0.13;86.92;92925.31;5088570;28;20204;-76
2021/12/13 09:57:55;;;;;;;15.33;14.13;;;;;;;-0.23;86.73;92886.50;5087706;28;20224;-76
2021/12/13 10:00:29;;;;;;;16.50;15.30;;;;;;;-0.09;87.42;92901.59;5086442;28;20254;-76
2021/12/13 10:03:01;;;;;;;17.10;15.80;;;;;;;0.00;87.17;92918.31;5087101;28;20248;-75
2021/12/13 10:05:35;;;;;;;15.67;14.50;;;;;;;-0.04;87.53;92876.13;5089555;28;20208;-76
2021/12/13 10:08:07;;;;;;;19.03;17.63;;;;;;;0.01;87.42;92903.72;5086295;28;20288;-76
2021/12/13 10:10:46;;;;;;;15.80;14.60;;;;;;;-0.02;88.08;92893.88;5086773;28;20272;-76
2021/12/13 10:13:19;;;;;;;14.37;13.40;;;;;;;-0.27;86.95;92906.66;5089610;28;20250;-77
2021/12/13 10:15:55;;;;;;;16.43;15.23;;;;;;;-0.30;88.22;92896.81;5087857;28;20220;-77
2021/12/13 10:18:25;;;;;;;17.13;15.93;;;;;;;0.02;88.25;92907.09;5074028;28;20247;-78
2021/12/13 10:20:58;;;;;;;16.73;15.33;;;;;;;-0.56;89.01;92860.28;5068945;28;20353;-77
2021/12/13 10:23:31;;;;;;;15.50;14.30;;;;;;;-0.26;89.06;92903.09;5081142;28;20283;-77
2021/12/13 10:26:00;;;;;;;17.47;16.07;;;;;;;-0.12;88.81;92911.50;5088019;28;20196;-77
2021/12/13 10:28:31;;;;;;;17.03;15.53;;;;;;;-0.05;88.31;92912.25;5088004;28;20231;-78
2021/12/13 10:31:03;;;;;;;17.43;15.97;;;;;;;-0.09;87.80;92886.22;5087241;28;20185;-77
2021/12/13 10:33:30;;;;;;;17.67;15.80;;;;;;;0.15;87.97;92897.50;5087057;28;20221;-76
2021/12/13 10:35:56;;;;;;;17.80;16.10;;;;;;;-0.15;88.43;92886.25;5089363;28;20200;-76
2021/12/13 10:38:26;;;;;;;18.27;16.70;;;;;;;0.09;88.70;92905.25;5085744;28;20258;-76
2021/12/13 10:41:01;;;;;;;16.67;15.20;;;;;;;0.02;88.97;92881.41;5087029;28;20168;-76
2021/12/13 10:43:34;;;;;;;16.50;15.03;;;;;;;0.28;87.68;92884.56;5087211;28;20232;-76
2021/12/13 10:46:11;;;;;;;18.63;17.03;;;;;;;0.16;89.02;92875.19;5087450;28;20224;-76
2021/12/13 10:48:44;;;;;;;19.43;17.83;;;;;;;0.42;86.23;92895.53;5086969;28;20244;-76
2021/12/13 10:51:17;;;;;;;17.60;15.90;;;;;;;0.57;86.41;92898.53;5088816;28;20188;-77
2021/12/13 10:53:44;;;;;;;18.50;16.90;;;;;;;0.48;86.57;92886.97;5087554;28;20213;-76
2021/12/13 10:56:15;;;;;;;18.20;16.80;;;;;;;0.40;86.82;92882.88;5087387;28;20197;-76
2021/12/13 10:58:45;;;;;;;17.17;15.87;;;;;;;0.43;87.06;92879.91;5071145;28;20317;-76
2021/12/13 11:01:20;;;;;;;17.07;15.53;;;;;;;0.42;87.13;92880.09;5068181;28;20172;-76
2021/12/13 11:03:47;;;;;;;17.27;16.03;;;;;;;0.82;86.18;92887.25;5082716;28;20219;-76
2021/12/13 11:06:14;;;;;;;16.57;15.30;;;;;;;0.18;87.12;92868.84;5086253;28;20216;-78
2021/12/13 11:08:42;;;;;;;15.40;14.13;;;;;;;0.58;86.13;92869.28;5085649;28;20228;-77
2021/12/13 11:11:30;;;;;;;16.87;15.47;;;;;;;0.50;86.19;92860.06;5088572;28;20200;-75
2021/12/13 11:13:59;;;;;;;17.47;16.07;;;;;;;0.27;86.99;92865.03;5078125;28;21812;-73
2021/12/13 11:16:31;;;;;;;19.63;18.10;;;;;;;0.74;85.81;92897.00;5081230;28;20193;-75
2021/12/13 11:18:57;;;;;;;16.13;14.93;;;;;;;0.57;85.60;92893.41;5087332;28;20224;-76
2021/12/13 11:21:30;;;;;;;17.83;16.43;;;;;;;0.05;90.13;92873.31;5087397;28;20208;-75
2021/12/13 11:23:56;;;;;;;16.43;15.13;;;;;;;0.01;88.23;92875.50;5087124;28;20217;-75
2021/12/13 11:26:27;;;;;;;18.37;16.97;;;;;;;0.26;87.94;92888.34;5086253;28;20212;-75
2021/12/13 11:28:54;;;;;;;18.37;16.90;;;;;;;0.26;87.59;92886.56;5086300;28;20224;-75
2021/12/13 11:31:28;;;;;;;17.70;15.90;;;;;;;0.20;88.16;92884.03;5088541;28;20217;-77
2021/12/13 11:34:03;;;;;;;18.30;16.93;;;;;;;0.41;87.32;92892.16;5087407;28;20235;-77
2021/12/13 11:36:57;;;;;;;18.50;17.00;;;;;;;0.48;86.88;92864.66;5089147;28;20184;-77
2021/12/13 11:39:48;;;;;;;19.80;17.87;;;;;;;0.52;87.21;92883.75;5087413;28;20209;-77
2021/12/13 11:42:38;;;;;;;18.10;16.50;;;;;;;0.14;88.68;92882.31;5085469;28;20276;-76
2021/12/13 11:45:12;;;;;;;19.57;17.93;;;;;;;0.09;88.72;92888.06;5088985;28;20196;-76
2021/12/13 11:47:46;;;;;;;18.83;17.23;;;;;;;0.18;88.79;92888.59;5089994;28;20224;-76
2021/12/13 11:50:42;;;;;;;18.43;16.77;;;;;;;0.38;88.65;92889.22;5088799;28;20208;-77
2021/12/13 11:53:37;;;;;;;17.93;16.43;;;;;;;0.26;88.33;92890.91;5090626;28;20259;-77
2021/12/13 11:56:40;;;;;;;16.60;15.40;;;;;;;0.18;88.68;92896.28;5089286;28;20188;-77
2021/12/13 11:59:43;;;;;;;17.10;15.70;;;;;;;0.29;89.26;92898.19;5088497;28;20226;-76
2021/12/13 12:02:18;;;;;;;17.30;15.90;;;;;;;0.26;89.30;92896.81;5090186;28;20233;-77
2021/12/13 12:05:11;;;;;;;16.37;15.17;;;;;;;0.06;89.60;92906.47;5090216;28;20193;-77